Time;durP1;ratioP1;P1;durP2;ratioP2;P2;SDS_P1;SDS_P2;PMS_P1;PMS_P2;Temp;Humidity;BMP_temperature;BMP_pressure;BME280_temperature;BME280_humidity;BME280_pressure;Samples;Min_cycle;Max_cycle;Signal;HPM_P1;HPM_P2
2023/10/17 00:00:39;;;;;;;16.75;8.95;;;;;;;;;;5079689;28;20044;-89
2023/10/17 00:03:10;;;;;;;17.33;8.52;;;;;;;;;;5061908;28;20021;-89
2023/10/17 00:05:39;;;;;;;20.60;8.73;;;;;;;;;;5061484;28;20024;-90
2023/10/17 00:08:05;;;;;;;19.67;9.70;;;;;;;;;;5061640;28;20021;-90
2023/10/17 00:10:41;;;;;;;17.23;8.77;;;;;;;;;;5061638;28;20061;-90
2023/10/17 00:13:31;;;;;;;20.13;8.90;;;;;;;;;;5061635;28;20050;-90
2023/10/17 00:15:58;;;;;;;19.48;8.25;;;;;;;;;;5061648;28;20383;-89
2023/10/17 00:18:25;;;;;;;21.27;9.60;;;;;;;;;;5061532;28;20024;-89
2023/10/17 00:20:52;;;;;;;22.40;9.93;;;;;;;;;;5061745;28;20456;-90
2023/10/17 00:23:22;;;;;;;17.08;8.52;;;;;;;;;;5062008;28;20048;-90
2023/10/17 00:25:52;;;;;;;24.42;9.85;;;;;;;;;;5061726;28;20388;-90
2023/10/17 00:28:20;;;;;;;23.45;9.63;;;;;;;;;;5061771;28;20344;-90
2023/10/17 00:30:48;;;;;;;18.65;9.02;;;;;;;;;;5061736;28;20047;-90
2023/10/17 00:33:15;;;;;;;21.25;9.82;;;;;;;;;;5078529;28;20026;-89
2023/10/17 00:35:45;;;;;;;27.17;9.80;;;;;;;;;;5062263;28;20059;-91
2023/10/17 00:38:15;;;;;;;18.02;9.65;;;;;;;;;;5062771;28;20031;-89
2023/10/17 00:40:51;;;;;;;27.05;10.88;;;;;;;;;;5061797;28;20379;-90
2023/10/17 00:43:17;;;;;;;22.23;9.95;;;;;;;;;;5095434;28;20024;-90
2023/10/17 00:45:45;;;;;;;29.05;11.07;;;;;;;;;;5059488;28;20031;-89
2023/10/17 00:48:22;;;;;;;24.15;10.30;;;;;;;;;;5061069;28;20027;-89
2023/10/17 00:51:12;;;;;;;18.42;9.38;;;;;;;;;;5094570;28;20364;-89
2023/10/17 00:53:41;;;;;;;20.45;9.05;;;;;;;;;;5060177;28;20036;-89
2023/10/17 00:56:09;;;;;;;19.50;8.88;;;;;;;;;;5060468;28;20548;-91
2023/10/17 00:58:35;;;;;;;22.15;10.13;;;;;;;;;;5058182;28;20095;-90
2023/10/17 01:01:09;;;;;;;19.63;9.48;;;;;;;;;;5084333;28;20052;-90
2023/10/17 01:03:46;;;;;;;23.50;9.88;;;;;;;;;;5055920;28;20024;-90
2023/10/17 01:06:23;;;;;;;18.73;8.55;;;;;;;;;;5058969;28;20021;-90
2023/10/17 01:08:49;;;;;;;17.60;7.90;;;;;;;;;;5058393;28;20040;-91
2023/10/17 01:11:21;;;;;;;20.73;9.10;;;;;;;;;;5058050;28;20016;-90
2023/10/17 01:13:52;;;;;;;18.63;9.10;;;;;;;;;;5059468;28;20020;-90
2023/10/17 01:16:18;;;;;;;21.10;9.20;;;;;;;;;;5044773;28;20257;-90
2023/10/17 01:18:44;;;;;;;21.92;9.35;;;;;;;;;;5057675;28;20383;-90
2023/10/17 01:21:19;;;;;;;18.73;8.75;;;;;;;;;;5057254;28;20027;-90
2023/10/17 01:23:47;;;;;;;18.48;9.15;;;;;;;;;;5056791;28;20386;-91
2023/10/17 01:26:14;;;;;;;21.23;9.30;;;;;;;;;;5057455;28;20051;-90
2023/10/17 01:28:40;;;;;;;13.98;7.00;;;;;;;;;;5056847;28;20032;-90
2023/10/17 01:31:06;;;;;;;22.30;9.30;;;;;;;;;;5075047;28;20017;-90
2023/10/17 01:33:38;;;;;;;17.63;8.38;;;;;;;;;;5057419;28;20013;-90
2023/10/17 01:36:09;;;;;;;16.45;8.90;;;;;;;;;;5074701;28;20021;-90
2023/10/17 01:38:35;;;;;;;18.90;9.05;;;;;;;;;;5057128;28;20039;-90
2023/10/17 01:41:06;;;;;;;21.33;8.27;;;;;;;;;;5057268;28;20017;-90
2023/10/17 01:43:36;;;;;;;16.17;8.05;;;;;;;;;;5074652;28;20541;-90
2023/10/17 01:46:05;;;;;;;19.75;8.55;;;;;;;;;;5057400;28;20119;-90
2023/10/17 01:48:31;;;;;;;15.60;7.43;;;;;;;;;;5057061;28;20352;-90
2023/10/17 01:50:56;;;;;;;18.17;8.32;;;;;;;;;;5056368;28;20149;-91
2023/10/17 01:53:22;;;;;;;14.98;6.38;;;;;;;;;;5056530;28;20016;-89
2023/10/17 01:56:02;;;;;;;18.98;8.35;;;;;;;;;;5056795;28;20062;-90
2023/10/17 01:58:29;;;;;;;16.83;7.47;;;;;;;;;;5056484;28;20111;-90
2023/10/17 02:00:57;;;;;;;15.30;7.60;;;;;;;;;;5056841;28;20322;-90
2023/10/17 02:03:23;;;;;;;14.90;7.30;;;;;;;;;;5074667;28;20024;-90
2023/10/17 02:05:48;;;;;;;17.25;8.45;;;;;;;;;;5056645;28;20028;-90
2023/10/17 02:08:14;;;;;;;14.73;7.22;;;;;;;;;;5056259;28;20525;-89
2023/10/17 02:10:40;;;;;;;15.85;7.38;;;;;;;;;;5057720;28;20031;-90
2023/10/17 02:13:06;;;;;;;15.52;7.43;;;;;;;;;;5056982;28;20025;-90
2023/10/17 02:15:32;;;;;;;16.63;7.53;;;;;;;;;;5056693;28;20019;-90
2023/10/17 02:17:57;;;;;;;16.88;6.78;;;;;;;;;;5074393;28;20028;-90
2023/10/17 02:22:55;;;;;;;13.43;6.70;;;;;;;;;;5075690;28;20020;-90
2023/10/17 02:25:28;;;;;;;14.30;6.97;;;;;;;;;;5057444;28;20428;-90
2023/10/17 02:27:53;;;;;;;16.30;6.18;;;;;;;;;;5044336;28;20453;-90
2023/10/17 02:30:20;;;;;;;12.68;6.25;;;;;;;;;;5058149;28;20027;-90
2023/10/17 02:32:52;;;;;;;11.10;5.53;;;;;;;;;;5074570;28;20021;-91
2023/10/17 02:35:28;;;;;;;15.13;6.90;;;;;;;;;;5056424;28;20039;-90
2023/10/17 02:37:56;;;;;;;11.82;5.90;;;;;;;;;;5057114;28;20032;-90
2023/10/17 02:40:23;;;;;;;12.15;5.85;;;;;;;;;;5057753;28;20028;-91
2023/10/17 02:42:48;;;;;;;13.57;6.15;;;;;;;;;;5057379;28;20017;-90
2023/10/17 02:45:24;;;;;;;12.98;5.53;;;;;;;;;;5056372;28;20448;-90
2023/10/17 02:47:50;;;;;;;13.18;6.43;;;;;;;;;;5055784;28;20436;-90
2023/10/17 02:50:23;;;;;;;13.73;5.97;;;;;;;;;;5074337;28;20083;-90
2023/10/17 02:52:51;;;;;;;16.73;6.50;;;;;;;;;;5055462;28;20024;-91
2023/10/17 02:55:23;;;;;;;10.77;5.28;;;;;;;;;;5055664;28;20044;-90
2023/10/17 02:57:48;;;;;;;;;;;;;;;;;;5055985;28;20020;-91
2023/10/17 03:00:23;;;;;;;12.60;5.78;;;;;;;;;;5073458;28;19904;-90
2023/10/17 03:02:58;;;;;;;16.17;5.93;;;;;;;;;;5055638;28;20025;-91
2023/10/17 03:05:24;;;;;;;15.60;6.22;;;;;;;;;;5068481;28;20048;-91
2023/10/17 03:07:50;;;;;;;12.65;5.80;;;;;;;;;;5055259;28;20044;-91
2023/10/17 03:10:37;;;;;;;14.57;5.90;;;;;;;;;;5055461;28;20028;-90
2023/10/17 03:15:45;;;;;;;12.15;6.57;;;;;;;;;;5073377;28;20134;-91
2023/10/17 03:18:15;;;;;;;15.13;6.85;;;;;;;;;;5088915;28;20359;-91
2023/10/17 03:20:41;;;;;;;12.00;6.55;;;;;;;;;;5052306;28;20048;-91
2023/10/17 03:23:08;;;;;;;11.77;6.20;;;;;;;;;;5055069;28;20035;-91
2023/10/17 03:25:37;;;;;;;18.75;7.70;;;;;;;;;;5055190;28;20391;-90
2023/10/17 03:28:04;;;;;;;12.98;5.97;;;;;;;;;;5054850;28;20197;-91
2023/10/17 03:30:30;;;;;;;11.60;5.72;;;;;;;;;;5055224;28;20190;-90
2023/10/17 03:35:25;;;;;;;14.02;5.47;;;;;;;;;;5073303;28;20040;-90
2023/10/17 03:37:51;;;;;;;11.77;5.90;;;;;;;;;;5041392;28;20045;-90
2023/10/17 03:40:19;;;;;;;15.38;6.47;;;;;;;;;;5054999;28;20033;-90
2023/10/17 03:42:54;;;;;;;15.38;6.05;;;;;;;;;;5055191;28;20036;-91
2023/10/17 03:47:59;;;;;;;11.43;5.03;;;;;;;;;;5072975;28;20345;-89
2023/10/17 03:53:29;;;;;;;11.18;5.25;;;;;;;;;;5034824;28;20040;-90
2023/10/17 03:55:54;;;;;;;11.73;5.30;;;;;;;;;;5045240;28;20031;-90
2023/10/17 04:00:48;;;;;;;10.95;5.68;;;;;;;;;;5073648;28;20099;-90
2023/10/17 04:03:23;;;;;;;12.75;5.43;;;;;;;;;;5054636;28;20059;-90
2023/10/17 04:06:34;;;;;;;10.93;4.70;;;;;;;;;;5054169;28;20337;-90
2023/10/17 04:08:38;;;;;;;12.00;5.65;;;;;;;;;;5061748;28;20120;-90
2023/10/17 04:13:51;;;;;;;8.65;4.45;;;;;;;;;;5073427;28;20074;-90
2023/10/17 04:16:22;;;;;;;9.13;4.80;;;;;;;;;;5054896;28;20024;-90
2023/10/17 04:19:07;;;;;;;13.48;4.93;;;;;;;;;;5055727;28;20479;-90
2023/10/17 04:21:38;;;;;;;12.15;4.68;;;;;;;;;;5060174;28;20021;-89
2023/10/17 04:24:06;;;;;;;8.93;4.82;;;;;;;;;;5058575;28;20017;-90
2023/10/17 04:26:35;;;;;;;8.73;4.47;;;;;;;;;;5058185;28;20380;-90
2023/10/17 04:29:17;;;;;;;12.02;5.20;;;;;;;;;;5058650;28;20013;-90
2023/10/17 04:31:43;;;;;;;9.23;4.53;;;;;;;;;;5059264;28;20157;-90
2023/10/17 04:34:14;;;;;;;11.35;5.28;;;;;;;;;;5058424;28;20033;-90
2023/10/17 04:36:40;;;;;;;11.38;5.72;;;;;;;;;;5057952;28;20048;-90
2023/10/17 04:39:48;;;;;;;11.07;5.03;;;;;;;;;;5057850;28;20097;-90
2023/10/17 04:44:33;;;;;;;8.60;4.28;;;;;;;;;;5076417;28;20390;-90
2023/10/17 04:49:28;;;;;;;9.55;4.45;;;;;;;;;;5075079;28;20436;-90
2023/10/17 04:54:39;;;;;;;11.40;4.80;;;;;;;;;;5076290;28;20065;-90
2023/10/17 04:57:05;;;;;;;10.35;4.43;;;;;;;;;;5076268;28;20419;-91
2023/10/17 06:18:32;;;;;;;9.32;4.53;;;;;;;;;;5062156;28;20047;-89
2023/10/17 06:21:06;;;;;;;9.43;4.90;;;;;;;;;;5056532;28;20388;-87
2023/10/17 06:34:31;;;;;;;10.80;5.25;;;;;;;;;;5070524;28;20023;-88
2023/10/17 06:37:01;;;;;;;10.10;4.45;;;;;;;;;;5054798;28;20017;-89
2023/10/17 06:39:36;;;;;;;13.85;4.88;;;;;;;;;;5080596;28;20025;-89
2023/10/17 06:42:29;;;;;;;11.85;4.78;;;;;;;;;;5054773;28;20020;-89
2023/10/17 06:44:54;;;;;;;8.43;3.78;;;;;;;;;;5068681;28;20041;-89
2023/10/17 06:47:31;;;;;;;8.95;3.70;;;;;;;;;;5078866;28;20448;-90
2023/10/17 06:55:21;;;;;;;9.07;4.05;;;;;;;;;;5073466;28;20032;-89
2023/10/17 06:57:50;;;;;;;6.50;3.08;;;;;;;;;;5055243;28;20441;-88
2023/10/17 07:00:17;;;;;;;10.63;3.55;;;;;;;;;;5073062;28;20577;-89
2023/10/17 07:02:48;;;;;;;6.75;3.22;;;;;;;;;;5055689;28;20421;-89
2023/10/17 07:05:14;;;;;;;8.93;3.50;;;;;;;;;;5055473;28;20024;-90
2023/10/17 07:07:40;;;;;;;6.88;2.85;;;;;;;;;;5073406;28;20102;-89
2023/10/17 07:13:22;;;;;;;7.22;3.53;;;;;;;;;;5050853;28;20515;-90
2023/10/17 07:15:52;;;;;;;7.15;2.58;;;;;;;;;;5086048;28;20027;-90
2023/10/17 07:23:48;;;;;;;14.70;3.35;;;;;;;;;;5072882;28;20422;-90
2023/10/17 07:26:17;;;;;;;10.05;3.75;;;;;;;;;;5054154;28;20021;-89
2023/10/17 07:28:43;;;;;;;14.98;3.65;;;;;;;;;;5042360;28;20431;-89
2023/10/17 07:31:12;;;;;;;8.55;3.28;;;;;;;;;;5057255;28;20104;-89
2023/10/17 07:33:41;;;;;;;11.02;3.15;;;;;;;;;;5042558;28;20028;-89
2023/10/17 07:36:15;;;;;;;10.27;4.50;;;;;;;;;;5059122;28;20099;-90
2023/10/17 07:38:43;;;;;;;10.52;4.20;;;;;;;;;;5057540;28;20032;-89
2023/10/17 07:41:14;;;;;;;4.95;2.95;;;;;;;;;;5057145;28;20021;-89
2023/10/17 07:43:46;;;;;;;6.28;3.15;;;;;;;;;;5074011;28;20116;-90
2023/10/17 07:46:20;;;;;;;6.18;3.35;;;;;;;;;;5057193;28;20448;-89
2023/10/17 07:48:50;;;;;;;6.25;2.92;;;;;;;;;;5063468;28;20446;-89
2023/10/17 07:51:16;;;;;;;8.82;3.60;;;;;;;;;;5055865;28;20020;-90
2023/10/17 07:53:46;;;;;;;8.02;3.30;;;;;;;;;;5075586;28;20095;-89
2023/10/17 07:56:20;;;;;;;9.40;3.05;;;;;;;;;;5060032;28;20187;-89
2023/10/17 07:58:46;;;;;;;9.18;3.13;;;;;;;;;;5059903;28;20026;-89
2023/10/17 08:01:30;;;;;;;9.40;2.80;;;;;;;;;;5061079;28;20047;-90
2023/10/17 08:04:13;;;;;;;9.13;2.92;;;;;;;;;;5078053;28;20021;-89
2023/10/17 08:06:38;;;;;;;;;;;;;;;;;;5059954;28;20032;-90
2023/10/17 08:09:10;;;;;;;7.95;3.63;;;;;;;;;;5059286;28;19905;-89
2023/10/17 08:11:37;;;;;;;15.02;3.35;;;;;;;;;;5059503;28;20530;-90
2023/10/17 08:14:06;;;;;;;6.15;3.17;;;;;;;;;;5077445;28;20048;-90
2023/10/17 08:16:32;;;;;;;11.75;3.20;;;;;;;;;;5076822;28;20032;-90
2023/10/17 08:19:13;;;;;;;6.57;2.55;;;;;;;;;;5058930;28;20024;-89
2023/10/17 08:24:15;;;;;;;5.32;2.80;;;;;;;;;;5077240;28;20019;-90
2023/10/17 08:26:42;;;;;;;5.57;2.63;;;;;;;;;;5058725;28;20024;-90
2023/10/17 08:29:10;;;;;;;5.25;2.60;;;;;;;;;;5058616;28;20067;-89
2023/10/17 08:31:36;;;;;;;5.47;2.95;;;;;;;;;;5058655;28;20017;-89
2023/10/17 08:37:07;;;;;;;13.07;2.58;;;;;;;;;;5076290;28;20035;-90
2023/10/17 08:41:57;;;;;;;6.03;2.33;;;;;;;;;;5076081;28;20383;-90
2023/10/17 08:44:28;;;;;;;7.65;2.33;;;;;;;;;;5058028;28;20377;-90
2023/10/17 08:46:54;;;;;;;10.43;2.92;;;;;;;;;;5058264;28;20016;-89
2023/10/17 08:49:21;;;;;;;5.80;1.92;;;;;;;;;;5058662;28;20477;-89
2023/10/17 08:51:50;;;;;;;7.90;2.53;;;;;;;;;;5059086;28;20372;-90
2023/10/17 08:54:18;;;;;;;4.78;2.40;;;;;;;;;;5092459;28;20020;-89
2023/10/17 08:56:45;;;;;;;3.78;1.70;;;;;;;;;;5076466;28;20067;-90
2023/10/17 08:59:12;;;;;;;9.05;3.00;;;;;;;;;;5056753;28;20104;-91
2023/10/17 09:01:37;;;;;;;4.18;1.80;;;;;;;;;;5075253;28;20456;-90
2023/10/17 09:04:08;;;;;;;5.97;2.10;;;;;;;;;;5057917;28;20020;-90
2023/10/17 09:06:37;;;;;;;5.78;2.28;;;;;;;;;;5075213;28;20028;-90
2023/10/17 09:09:18;;;;;;;6.47;1.85;;;;;;;;;;5055145;28;20036;-90
2023/10/17 09:12:01;;;;;;;5.03;1.77;;;;;;;;;;5092137;28;20021;-90
2023/10/17 09:14:29;;;;;;;6.28;2.47;;;;;;;;;;5091422;28;20356;-90
2023/10/17 09:17:10;;;;;;;5.45;1.85;;;;;;;;;;5058934;28;20032;-91
2023/10/17 09:19:46;;;;;;;5.28;2.22;;;;;;;;;;5060191;28;20070;-90
2023/10/17 09:22:15;;;;;;;11.35;2.05;;;;;;;;;;5061214;28;20111;-90
2023/10/17 09:24:43;;;;;;;4.63;2.25;;;;;;;;;;5064685;28;20020;-90
2023/10/17 09:27:14;;;;;;;4.97;2.08;;;;;;;;;;5078524;28;20029;-90
2023/10/17 09:29:44;;;;;;;7.97;3.25;;;;;;;;;;5087447;28;20089;-89
2023/10/17 09:32:09;;;;;;;3.58;1.60;;;;;;;;;;5058352;28;20188;-90
2023/10/17 09:34:36;;;;;;;7.28;2.42;;;;;;;;;;5059101;28;20013;-90
2023/10/17 09:37:04;;;;;;;5.50;2.10;;;;;;;;;;5058553;28;20056;-91
2023/10/17 09:39:33;;;;;;;3.83;1.77;;;;;;;;;;5058198;28;20027;-90
2023/10/17 09:41:59;;;;;;;4.53;1.42;;;;;;;;;;5057647;28;20031;-89
2023/10/17 09:44:24;;;;;;;2.85;1.88;;;;;;;;;;5075426;28;20016;-89
2023/10/17 09:46:54;;;;;;;7.80;2.05;;;;;;;;;;5058022;28;20063;-89
2023/10/17 09:49:20;;;;;;;7.18;2.28;;;;;;;;;;5057342;28;20028;-90
2023/10/17 09:51:47;;;;;;;5.40;1.75;;;;;;;;;;5057543;28;20012;-89
2023/10/17 09:54:14;;;;;;;5.80;2.13;;;;;;;;;;5054058;28;20017;-89
2023/10/17 09:56:45;;;;;;;3.50;1.45;;;;;;;;;;5057506;28;20437;-89
2023/10/17 09:59:17;;;;;;;3.55;2.03;;;;;;;;;;5057294;28;20025;-89
2023/10/17 10:01:45;;;;;;;;;;;;;;;;;;5057325;28;20464;-89
2023/10/17 10:04:11;;;;;;;4.03;1.92;;;;;;;;;;5057163;28;19905;-89
2023/10/17 10:06:39;;;;;;;4.10;1.88;;;;;;;;;;5057375;28;20024;-89
2023/10/17 10:09:13;;;;;;;2.85;1.45;;;;;;;;;;5075173;28;20012;-89
2023/10/17 10:11:48;;;;;;;3.35;1.63;;;;;;;;;;5057431;28;20493;-89
2023/10/17 10:14:16;;;;;;;4.25;1.85;;;;;;;;;;5075970;28;20717;-89
2023/10/17 10:16:53;;;;;;;7.28;1.75;;;;;;;;;;5056704;28;20032;-90
2023/10/17 10:19:19;;;;;;;3.75;1.75;;;;;;;;;;5056817;28;20023;-90
2023/10/17 10:21:54;;;;;;;3.95;1.67;;;;;;;;;;5056807;28;20024;-89
2023/10/17 10:24:24;;;;;;;3.45;1.48;;;;;;;;;;5056487;28;20085;-90
2023/10/17 10:27:09;;;;;;;1.95;1.00;;;;;;;;;;5056979;28;20371;-89
2023/10/17 10:29:34;;;;;;;4.47;1.25;;;;;;;;;;5056989;28;20020;-89
2023/10/17 10:32:06;;;;;;;3.55;1.63;;;;;;;;;;5056712;28;20276;-90
2023/10/17 10:34:37;;;;;;;5.05;1.65;;;;;;;;;;5056787;28;20020;-90
2023/10/17 10:37:03;;;;;;;2.40;1.40;;;;;;;;;;5082542;28;20078;-89
2023/10/17 10:39:30;;;;;;;2.58;1.40;;;;;;;;;;5056352;28;20022;-90
2023/10/17 10:42:05;;;;;;;5.30;2.05;;;;;;;;;;5056464;28;20109;-89
2023/10/17 10:44:39;;;;;;;4.03;1.10;;;;;;;;;;5056478;28;20031;-89
2023/10/17 10:47:05;;;;;;;4.57;1.75;;;;;;;;;;5057338;28;20055;-90
2023/10/17 10:49:31;;;;;;;2.45;1.30;;;;;;;;;;5056842;28;20088;-89
2023/10/17 10:51:58;;;;;;;2.90;1.23;;;;;;;;;;5056691;28;20047;-88
2023/10/17 10:54:43;;;;;;;4.35;1.27;;;;;;;;;;5056078;28;20017;-89
2023/10/17 10:57:08;;;;;;;4.30;1.58;;;;;;;;;;5047854;28;20569;-89
2023/10/17 10:59:36;;;;;;;3.70;1.10;;;;;;;;;;5055791;28;20024;-88
2023/10/17 11:02:01;;;;;;;3.67;1.42;;;;;;;;;;5055994;28;20020;-89
2023/10/17 11:04:27;;;;;;;3.45;1.33;;;;;;;;;;5056634;28;20024;-89
2023/10/17 11:06:54;;;;;;;2.65;1.30;;;;;;;;;;5076669;28;20018;-89
2023/10/17 11:09:24;;;;;;;4.95;1.30;;;;;;;;;;5057423;28;20513;-88
2023/10/17 11:11:53;;;;;;;8.88;1.75;;;;;;;;;;5060740;28;20024;-89
2023/10/17 11:14:19;;;;;;;2.63;1.05;;;;;;;;;;5059879;28;20023;-89
2023/10/17 11:16:50;;;;;;;3.38;1.15;;;;;;;;;;5056840;28;20025;-88
2023/10/17 11:19:22;;;;;;;3.75;1.65;;;;;;;;;;5090557;28;20074;-89
2023/10/17 11:21:47;;;;;;;;;;;;;;;;;;5058516;28;20020;-88
2023/10/17 11:24:13;;;;;;;2.58;1.00;;;;;;;;;;5055087;28;19915;-89
2023/10/17 11:26:41;;;;;;;2.47;1.40;;;;;;;;;;5050626;28;20036;-89
2023/10/17 11:29:07;;;;;;;4.03;0.80;;;;;;;;;;5056014;28;20024;-88
2023/10/17 11:31:32;;;;;;;4.28;1.40;;;;;;;;;;5055630;28;20545;-88
2023/10/17 11:33:59;;;;;;;2.90;0.93;;;;;;;;;;5049069;28;20091;-88
2023/10/17 11:36:25;;;;;;;3.67;1.42;;;;;;;;;;5056099;28;20431;-87
2023/10/17 11:38:57;;;;;;;3.25;1.48;;;;;;;;;;5055975;28;20029;-89
2023/10/17 11:41:30;;;;;;;2.20;1.15;;;;;;;;;;5055009;28;20040;-89
2023/10/17 11:44:04;;;;;;;2.10;1.10;;;;;;;;;;5080893;28;20024;-88
2023/10/17 11:46:33;;;;;;;9.45;1.27;;;;;;;;;;5053906;28;20032;-89
2023/10/17 11:49:33;;;;;;;5.20;1.20;;;;;;;;;;5055736;28;20020;-89
2023/10/17 11:52:04;;;;;;;7.97;1.15;;;;;;;;;;5055373;28;20504;-89
2023/10/17 11:54:29;;;;;;;2.60;1.25;;;;;;;;;;5055862;28;20027;-88
2023/10/17 11:56:55;;;;;;;5.72;0.88;;;;;;;;;;5055440;28;20013;-89
2023/10/17 11:59:21;;;;;;;5.07;1.30;;;;;;;;;;5055624;28;20464;-88
2023/10/17 12:01:47;;;;;;;2.05;0.88;;;;;;;;;;5055338;28;20021;-89
2023/10/17 12:04:16;;;;;;;2.60;0.60;;;;;;;;;;5055539;28;20020;-90
2023/10/17 12:06:48;;;;;;;4.30;1.10;;;;;;;;;;5055269;28;20024;-89
2023/10/17 12:11:51;;;;;;;2.83;1.20;;;;;;;;;;5073061;28;20036;-90
2023/10/17 12:14:25;;;;;;;2.67;1.30;;;;;;;;;;5073312;28;20023;-89
2023/10/17 12:16:54;;;;;;;0.90;0.60;;;;;;;;;;5055501;28;20028;-90
2023/10/17 12:19:20;;;;;;;3.30;1.00;;;;;;;;;;5055682;28;20258;-89
2023/10/17 12:21:48;;;;;;;7.18;1.70;;;;;;;;;;5073199;28;20024;-89
2023/10/17 12:24:19;;;;;;;2.45;1.15;;;;;;;;;;5054933;28;20013;-89
2023/10/17 12:26:45;;;;;;;2.42;0.90;;;;;;;;;;5089108;28;20021;-89
2023/10/17 12:29:13;;;;;;;8.02;1.40;;;;;;;;;;5055762;28;20070;-89
2023/10/17 12:31:39;;;;;;;1.55;1.00;;;;;;;;;;5073277;28;20024;-89
2023/10/17 12:34:07;;;;;;;1.77;0.95;;;;;;;;;;5055472;28;20020;-89
2023/10/17 12:36:34;;;;;;;2.28;1.10;;;;;;;;;;5055881;28;20032;-88
2023/10/17 12:39:02;;;;;;;3.28;0.95;;;;;;;;;;5056185;28;20584;-88
2023/10/17 12:41:30;;;;;;;1.63;0.90;;;;;;;;;;5075251;28;20054;-88
2023/10/17 12:43:55;;;;;;;5.15;0.90;;;;;;;;;;5077022;28;20487;-89
2023/10/17 12:46:20;;;;;;;2.53;1.08;;;;;;;;;;5059100;28;20021;-89
2023/10/17 12:48:48;;;;;;;3.17;1.00;;;;;;;;;;5058428;28;20099;-88
2023/10/17 12:51:14;;;;;;;3.47;1.05;;;;;;;;;;5058790;28;20023;-88
2023/10/17 12:53:40;;;;;;;1.10;0.63;;;;;;;;;;5059639;28;20019;-89
2023/10/17 12:56:06;;;;;;;4.75;0.93;;;;;;;;;;5059654;28;20094;-88
2023/10/17 12:58:32;;;;;;;1.38;0.90;;;;;;;;;;5060262;28;20027;-89
2023/10/17 13:00:58;;;;;;;3.38;0.95;;;;;;;;;;5059898;28;20017;-88
2023/10/17 13:03:25;;;;;;;2.83;1.02;;;;;;;;;;5058764;28;20097;-88
2023/10/17 13:05:50;;;;;;;3.25;1.02;;;;;;;;;;5059607;28;20031;-88
2023/10/17 13:08:15;;;;;;;3.40;0.90;;;;;;;;;;5059220;28;20681;-89
2023/10/17 13:10:41;;;;;;;5.28;0.98;;;;;;;;;;5058764;28;20025;-86
2023/10/17 13:13:06;;;;;;;1.33;0.80;;;;;;;;;;5058300;28;20432;-89
2023/10/17 13:15:31;;;;;;;2.10;0.98;;;;;;;;;;5058453;28;20013;-89
2023/10/17 13:18:00;;;;;;;5.82;1.10;;;;;;;;;;5058714;28;20032;-88
2023/10/17 13:20:28;;;;;;;1.27;0.70;;;;;;;;;;5058441;28;20116;-89
2023/10/17 13:23:02;;;;;;;4.30;0.70;;;;;;;;;;5057986;28;20037;-89
2023/10/17 13:25:32;;;;;;;4.22;0.98;;;;;;;;;;5057985;28;20100;-88
2023/10/17 13:27:58;;;;;;;1.20;0.63;;;;;;;;;;5058199;28;20089;-88
2023/10/17 13:30:23;;;;;;;2.75;0.90;;;;;;;;;;5058185;28;20025;-89
2023/10/17 13:32:52;;;;;;;4.15;0.70;;;;;;;;;;5057564;28;20107;-89
2023/10/17 13:35:18;;;;;;;1.25;0.70;;;;;;;;;;5053994;28;20029;-89
2023/10/17 13:37:51;;;;;;;3.15;0.77;;;;;;;;;;5057974;28;20021;-88
2023/10/17 13:40:16;;;;;;;2.00;0.70;;;;;;;;;;5057949;28;20388;-89
2023/10/17 13:42:41;;;;;;;2.25;0.80;;;;;;;;;;5057492;28;20040;-89
2023/10/17 13:45:07;;;;;;;2.58;0.70;;;;;;;;;;5057455;28;20021;-89
2023/10/17 13:47:32;;;;;;;3.92;0.70;;;;;;;;;;5075229;28;20025;-89
2023/10/17 13:49:58;;;;;;;2.38;0.63;;;;;;;;;;5057331;28;20030;-88
2023/10/17 13:52:24;;;;;;;3.13;0.75;;;;;;;;;;5056828;28;20025;-88
2023/10/17 13:54:50;;;;;;;1.73;0.85;;;;;;;;;;5075141;28;20024;-88
2023/10/17 13:57:16;;;;;;;2.40;0.80;;;;;;;;;;5057864;28;20016;-88
2023/10/17 13:59:46;;;;;;;8.02;0.80;;;;;;;;;;5075344;28;20033;-88
2023/10/17 14:02:15;;;;;;;2.25;0.70;;;;;;;;;;5057286;28;20119;-89
2023/10/17 14:04:44;;;;;;;2.38;0.50;;;;;;;;;;5057426;28;20059;-88
2023/10/17 14:07:11;;;;;;;3.15;1.00;;;;;;;;;;5057459;28;20028;-88
2023/10/17 14:09:39;;;;;;;1.75;0.90;;;;;;;;;;5057656;28;20056;-89
2023/10/17 14:12:08;;;;;;;2.78;1.05;;;;;;;;;;5058490;28;20063;-89
2023/10/17 14:14:35;;;;;;;2.47;0.98;;;;;;;;;;5092147;28;20035;-88
2023/10/17 14:17:03;;;;;;;2.78;0.77;;;;;;;;;;5058024;28;20040;-89
2023/10/17 14:19:37;;;;;;;3.50;0.50;;;;;;;;;;5057948;28;20013;-89
2023/10/17 14:22:10;;;;;;;1.42;0.80;;;;;;;;;;5057993;28;20443;-89
2023/10/17 14:27:20;;;;;;;1.45;0.68;;;;;;;;;;5075082;28;20468;-89
2023/10/17 14:29:47;;;;;;;1.13;0.55;;;;;;;;;;5057459;28;20082;-88
2023/10/17 14:32:14;;;;;;;1.55;0.85;;;;;;;;;;5056769;28;20460;-89
2023/10/17 14:34:39;;;;;;;2.95;0.80;;;;;;;;;;5056897;28;20112;-89
2023/10/17 14:37:07;;;;;;;9.93;1.05;;;;;;;;;;5057177;28;20093;-88
2023/10/17 14:39:33;;;;;;;3.55;0.88;;;;;;;;;;5056598;28;20028;-89
2023/10/17 14:41:59;;;;;;;3.50;0.90;;;;;;;;;;5056686;28;20114;-88
2023/10/17 14:44:24;;;;;;;2.47;0.80;;;;;;;;;;5056618;28;20020;-88
2023/10/17 14:46:52;;;;;;;3.25;1.00;;;;;;;;;;5056607;28;20020;-90
2023/10/17 14:49:18;;;;;;;2.72;0.70;;;;;;;;;;5056592;28;20384;-88
2023/10/17 14:51:46;;;;;;;1.40;0.60;;;;;;;;;;5056102;28;20024;-89
2023/10/17 14:54:13;;;;;;;3.40;0.70;;;;;;;;;;5056299;28;20444;-89
2023/10/17 14:56:39;;;;;;;1.58;0.52;;;;;;;;;;5056665;28;20020;-89
2023/10/17 14:59:07;;;;;;;2.08;0.70;;;;;;;;;;5056546;28;20036;-89
2023/10/17 15:01:32;;;;;;;4.75;0.90;;;;;;;;;;5056152;28;20028;-89
2023/10/17 15:04:00;;;;;;;2.00;0.60;;;;;;;;;;5041510;28;20024;-88
2023/10/17 15:06:26;;;;;;;1.67;0.88;;;;;;;;;;5056225;28;20031;-89
2023/10/17 15:08:51;;;;;;;1.70;0.80;;;;;;;;;;5056107;28;20044;-89
2023/10/17 15:11:18;;;;;;;2.28;0.80;;;;;;;;;;5056256;28;20139;-88
2023/10/17 15:13:45;;;;;;;5.90;1.13;;;;;;;;;;5073524;28;20333;-88
2023/10/17 15:16:14;;;;;;;2.25;1.02;;;;;;;;;;5055767;28;20024;-89
2023/10/17 15:18:43;;;;;;;2.85;1.00;;;;;;;;;;5055933;28;20028;-89
2023/10/17 15:21:08;;;;;;;5.35;1.00;;;;;;;;;;5056276;28;20464;-89
2023/10/17 15:23:40;;;;;;;5.50;1.00;;;;;;;;;;5057804;28;20035;-89
2023/10/17 15:26:05;;;;;;;3.10;1.10;;;;;;;;;;5048088;28;20375;-89
2023/10/17 15:28:30;;;;;;;3.28;0.95;;;;;;;;;;5056383;28;20372;-89
2023/10/17 15:31:05;;;;;;;4.55;0.90;;;;;;;;;;5055755;28;20442;-89
2023/10/17 15:33:32;;;;;;;2.20;0.70;;;;;;;;;;5073646;28;20494;-89
2023/10/17 15:35:58;;;;;;;4.68;1.10;;;;;;;;;;5055847;28;20052;-88
2023/10/17 15:38:24;;;;;;;1.65;0.80;;;;;;;;;;5056725;28;20035;-88
2023/10/17 15:40:49;;;;;;;1.15;0.70;;;;;;;;;;5056615;28;20111;-89
2023/10/17 15:43:16;;;;;;;2.63;0.63;;;;;;;;;;5056789;28;20017;-88
2023/10/17 15:45:57;;;;;;;2.97;0.70;;;;;;;;;;5056926;28;20028;-89
2023/10/17 15:48:23;;;;;;;1.48;0.80;;;;;;;;;;5070664;28;20036;-88
2023/10/17 15:50:55;;;;;;;2.90;0.90;;;;;;;;;;5056973;28;20021;-89
2023/10/17 15:53:20;;;;;;;;;;;;;;;;;;5058077;28;20036;-88
2023/10/17 15:55:55;;;;;;;3.33;1.15;;;;;;;;;;5056537;28;19905;-88
2023/10/17 15:58:38;;;;;;;2.92;0.75;;;;;;;;;;5073705;28;20414;-88
2023/10/17 16:01:04;;;;;;;3.00;1.00;;;;;;;;;;5057399;28;20020;-88
2023/10/17 16:03:29;;;;;;;1.38;0.70;;;;;;;;;;5055750;28;20485;-88
2023/10/17 16:05:57;;;;;;;3.80;1.00;;;;;;;;;;5055928;28;20495;-88
2023/10/17 16:08:23;;;;;;;1.58;0.73;;;;;;;;;;5055641;28;20060;-88
2023/10/17 16:10:56;;;;;;;4.75;1.00;;;;;;;;;;5055817;28;20107;-89
2023/10/17 16:13:22;;;;;;;3.08;1.13;;;;;;;;;;5073634;28;20019;-88
2023/10/17 16:15:47;;;;;;;3.17;0.98;;;;;;;;;;5056743;28;20442;-88
2023/10/17 16:18:12;;;;;;;2.92;1.27;;;;;;;;;;5058772;28;20028;-88
2023/10/17 16:20:38;;;;;;;3.15;1.00;;;;;;;;;;5059119;28;20384;-88
2023/10/17 16:23:07;;;;;;;3.72;1.30;;;;;;;;;;5059371;28;20487;-88
2023/10/17 16:25:35;;;;;;;5.45;1.50;;;;;;;;;;5059200;28;20016;-88
2023/10/17 16:28:00;;;;;;;5.47;1.27;;;;;;;;;;5076641;28;20028;-88
2023/10/17 16:30:29;;;;;;;2.92;1.40;;;;;;;;;;5076543;28;20020;-88
2023/10/17 16:32:57;;;;;;;3.03;1.48;;;;;;;;;;5044851;28;20044;-88
2023/10/17 16:35:25;;;;;;;7.03;1.13;;;;;;;;;;5058929;28;20107;-88
2023/10/17 16:37:50;;;;;;;3.70;1.25;;;;;;;;;;5058239;28;20020;-88
2023/10/17 16:40:16;;;;;;;3.20;1.42;;;;;;;;;;5058782;28;20035;-88
2023/10/17 16:42:41;;;;;;;6.70;1.55;;;;;;;;;;5076790;28;20066;-88
2023/10/17 16:45:11;;;;;;;3.88;1.23;;;;;;;;;;5058829;28;20692;-88
2023/10/17 16:47:37;;;;;;;5.45;1.35;;;;;;;;;;5076380;28;20029;-89
2023/10/17 16:50:02;;;;;;;4.38;1.52;;;;;;;;;;5058582;28;20021;-88
2023/10/17 16:52:28;;;;;;;2.50;1.27;;;;;;;;;;5058437;28;20074;-88
2023/10/17 16:54:53;;;;;;;4.45;1.55;;;;;;;;;;5076191;28;20051;-89
2023/10/17 16:57:20;;;;;;;4.45;1.30;;;;;;;;;;5062733;28;20028;-88
2023/10/17 16:59:46;;;;;;;4.63;1.27;;;;;;;;;;5078616;28;20016;-89
2023/10/17 17:02:12;;;;;;;4.53;1.63;;;;;;;;;;5059202;28;20048;-89
2023/10/17 17:04:37;;;;;;;4.32;1.67;;;;;;;;;;5059235;28;20043;-89
2023/10/17 17:07:03;;;;;;;5.22;1.85;;;;;;;;;;5060526;28;20024;-88
2023/10/17 17:09:32;;;;;;;2.42;1.58;;;;;;;;;;5061303;28;20028;-89
2023/10/17 17:11:57;;;;;;;3.25;1.45;;;;;;;;;;5060377;28;20111;-89
2023/10/17 17:14:23;;;;;;;3.00;1.98;;;;;;;;;;5059108;28;20051;-89